Time;durP1;ratioP1;P1;durP2;ratioP2;P2;SDS_P1;SDS_P2;PMS_P1;PMS_P2;Temp;Humidity;BMP_temperature;BMP_pressure;BME280_temperature;BME280_humidity;BME280_pressure;Samples;Min_cycle;Max_cycle;Signal;HPM_P1;HPM_P2
2021/12/31 00:00:19;;;;;;;7.53;2.30;;;14.50;76.10;;;;;;2330337;54;21031;-75
2021/12/31 00:02:46;;;;;;;3.85;1.80;;;14.50;76.10;;;;;;2415324;52;21734;-76
2021/12/31 00:05:13;;;;;;;4.07;1.87;;;14.40;76.00;;;;;;2324435;54;20975;-77
2021/12/31 00:07:39;;;;;;;4.85;1.55;;;14.40;76.00;;;;;;2355018;53;20898;-77
2021/12/31 00:10:06;;;;;;;6.70;1.98;;;14.40;76.00;;;;;;2420629;52;21008;-77
2021/12/31 00:12:32;;;;;;;14.10;3.83;;;14.30;75.90;;;;;;2356957;53;21027;-75
2021/12/31 00:15:02;;;;;;;7.40;2.22;;;14.30;75.90;;;;;;2359972;53;21012;-77
2021/12/31 00:17:28;;;;;;;4.85;1.67;;;14.20;75.80;;;;;;2414555;53;20954;-76
2021/12/31 00:20:02;;;;;;;9.27;2.45;;;14.20;75.80;;;;;;2351812;53;20964;-75
2021/12/31 00:25:13;;;;;;;6.47;1.83;;;14.20;76.70;;;;;;2351347;53;21014;-76
2021/12/31 00:27:39;;;;;;;5.55;2.00;;;14.10;75.90;;;;;;2371091;53;21542;-77
2021/12/31 00:30:06;;;;;;;4.95;1.48;;;14.10;75.90;;;;;;2371647;53;21040;-77
2021/12/31 00:32:32;;;;;;;5.35;1.70;;;14.00;75.80;;;;;;2370928;53;20902;-77
2021/12/31 00:34:59;;;;;;;4.07;1.17;;;14.00;75.90;;;;;;2361915;53;20963;-77
2021/12/31 00:37:28;;;;;;;3.20;1.37;;;14.00;75.90;;;;;;2359192;53;21088;-77
2021/12/31 00:39:56;;;;;;;3.25;1.02;;;14.00;75.90;;;;;;2371674;53;20997;-77
2021/12/31 00:42:23;;;;;;;5.37;1.85;;;13.90;76.00;;;;;;2370653;53;20977;-77
2021/12/31 00:44:49;;;;;;;5.35;1.75;;;13.90;76.10;;;;;;2371323;53;20938;-78
2021/12/31 00:47:15;;;;;;;3.37;1.52;;;13.90;76.20;;;;;;2365269;53;21135;-76
2021/12/31 00:49:41;;;;;;;3.25;1.27;;;13.90;76.30;;;;;;2345137;54;20970;-76
2021/12/31 00:52:08;;;;;;;2.97;1.30;;;13.80;76.20;;;;;;2386992;52;20886;-76
2021/12/31 00:54:35;;;;;;;2.62;1.00;;;13.80;76.20;;;;;;2352311;53;20989;-78
2021/12/31 00:57:05;;;;;;;3.08;1.00;;;13.80;76.30;;;;;;2363869;53;20899;-77
2021/12/31 00:59:32;;;;;;;2.10;0.88;;;13.80;76.40;;;;;;2369321;53;21065;-77
2021/12/31 01:02:03;;;;;;;3.37;1.27;;;13.80;76.40;;;;;;2348667;53;20973;-76
2021/12/31 01:04:33;;;;;;;2.40;1.13;;;13.70;76.40;;;;;;2510553;52;20918;-76
2021/12/31 01:06:59;;;;;;;1.85;0.80;;;13.70;76.40;;;;;;2369682;53;21058;-77
2021/12/31 01:09:28;;;;;;;2.17;0.88;;;13.70;76.50;;;;;;2346975;53;20888;-76
2021/12/31 01:11:56;;;;;;;1.90;0.80;;;13.70;76.40;;;;;;2342495;53;20937;-76
2021/12/31 01:14:36;;;;;;;3.25;1.20;;;13.70;76.40;;;;;;2336592;53;20935;-77
2021/12/31 01:17:05;;;;;;;2.33;0.90;;;13.70;76.40;;;;;;2498528;52;20993;-76
2021/12/31 01:19:45;;;;;;;2.20;0.80;;;13.60;76.10;;;;;;2367399;53;20960;-77
2021/12/31 01:22:14;;;;;;;1.45;0.68;;;13.60;76.10;;;;;;2418872;53;20968;-76
2021/12/31 01:24:40;;;;;;;1.52;0.60;;;13.60;76.10;;;;;;2482647;52;21592;-76
2021/12/31 01:27:06;;;;;;;2.45;0.80;;;13.60;76.80;;;;;;2375391;53;20962;-76
2021/12/31 01:29:33;;;;;;;2.60;0.70;;;13.60;75.90;;;;;;2337559;54;20947;-76
2021/12/31 01:32:00;;;;;;;1.60;0.70;;;13.50;75.90;;;;;;2345628;54;20934;-77
2021/12/31 01:34:26;;;;;;;2.58;0.80;;;13.50;76.00;;;;;;2371543;53;21017;-76
2021/12/31 01:36:53;;;;;;;2.15;0.80;;;13.50;76.00;;;;;;2425060;52;20942;-75
2021/12/31 01:39:19;;;;;;;1.58;0.68;;;13.50;75.90;;;;;;2588748;52;21707;-78
2021/12/31 01:41:46;;;;;;;2.08;0.80;;;13.40;75.90;;;;;;2371952;53;21453;-78
2021/12/31 01:44:12;;;;;;;3.08;0.95;;;13.40;76.00;;;;;;2422571;53;21659;-77
2021/12/31 01:47:04;;;;;;;2.65;0.80;;;13.40;76.00;;;;;;2352484;53;21006;-77
2021/12/31 01:49:36;;;;;;;2.60;0.82;;;13.30;75.60;;;;;;2370581;53;20958;-77
2021/12/31 01:52:04;;;;;;;3.17;1.05;;;13.30;75.70;;;;;;2356742;53;21031;-76
2021/12/31 01:54:33;;;;;;;2.20;0.80;;;13.30;75.70;;;;;;2523759;52;21008;-76
2021/12/31 01:57:01;;;;;;;2.20;1.00;;;13.20;75.50;;;;;;2335601;54;21004;-75
2021/12/31 01:59:28;;;;;;;1.95;0.80;;;13.20;75.40;;;;;;2350146;54;20960;-76
2021/12/31 02:01:55;;;;;;;3.50;0.93;;;13.20;75.40;;;;;;2350560;53;20914;-77
2021/12/31 02:04:22;;;;;;;2.50;0.98;;;13.20;75.40;;;;;;2370568;53;20925;-76
2021/12/31 02:06:48;;;;;;;2.50;0.90;;;13.10;75.30;;;;;;2371085;53;21033;-78
2021/12/31 02:09:14;;;;;;;3.40;1.00;;;13.10;75.40;;;;;;2390613;52;21042;-75
2021/12/31 02:11:41;;;;;;;2.47;0.95;;;13.00;75.30;;;;;;2606790;52;20999;-77
2021/12/31 02:14:08;;;;;;;2.22;0.80;;;13.00;75.40;;;;;;2352725;54;20984;-75
2021/12/31 02:16:35;;;;;;;2.92;1.05;;;13.00;75.70;;;;;;2339999;54;21214;-77
2021/12/31 02:19:14;;;;;;;2.10;0.90;;;12.90;75.90;;;;;;2371160;53;20931;-77
2021/12/31 02:21:47;;;;;;;1.77;0.68;;;12.90;75.90;;;;;;2545367;52;20942;-75
2021/12/31 02:24:14;;;;;;;3.03;1.00;;;12.90;75.90;;;;;;2371111;53;21441;-77
2021/12/31 02:26:40;;;;;;;2.10;0.80;;;12.90;76.10;;;;;;2511846;52;20958;-77
2021/12/31 02:29:06;;;;;;;1.92;0.85;;;12.90;76.20;;;;;;2345163;53;20984;-77
2021/12/31 02:31:36;;;;;;;2.28;0.90;;;12.90;76.20;;;;;;2547283;52;21818;-76
2021/12/31 02:34:02;;;;;;;2.95;0.93;;;12.80;76.00;;;;;;2397834;52;20977;-76
2021/12/31 02:36:28;;;;;;;2.37;0.80;;;12.80;76.00;;;;;;2421575;52;20976;-75
2021/12/31 02:38:55;;;;;;;2.28;0.70;;;12.80;76.00;;;;;;2553916;52;21758;-76
2021/12/31 02:41:21;;;;;;;2.90;1.00;;;12.80;76.00;;;;;;2372110;52;21428;-77
2021/12/31 02:43:47;;;;;;;1.95;0.77;;;12.80;76.10;;;;;;2355166;53;20943;-77
2021/12/31 02:46:14;;;;;;;2.40;0.90;;;12.80;76.10;;;;;;2536195;52;20963;-75
2021/12/31 02:48:40;;;;;;;2.85;0.70;;;12.70;75.80;;;;;;2344043;53;20995;-76
2021/12/31 02:51:09;;;;;;;1.15;0.55;;;12.70;75.70;;;;;;2408066;52;21046;-76
2021/12/31 02:53:37;;;;;;;2.47;0.80;;;12.70;75.60;;;;;;2429122;53;21014;-77
2021/12/31 02:56:10;;;;;;;2.55;0.70;;;12.70;75.60;;;;;;2407300;52;21514;-75
2021/12/31 02:58:37;;;;;;;;;;;12.70;75.40;;;;;;2474489;53;21010;-76
2021/12/31 03:01:04;;;;;;;3.08;0.93;;;12.60;74.90;;;;;;2455931;52;20137;-75
2021/12/31 03:03:32;;;;;;;2.40;0.93;;;12.60;75.00;;;;;;2370188;53;21025;-75
2021/12/31 03:05:59;;;;;;;4.30;1.30;;;12.60;74.90;;;;;;2383875;52;21695;-76
2021/12/31 03:08:29;;;;;;;5.72;2.47;;;12.50;74.70;;;;;;2426472;53;21443;-76
2021/12/31 03:10:56;;;;;;;5.72;2.70;;;12.50;74.50;;;;;;2367848;53;21257;-76
2021/12/31 03:13:22;;;;;;;5.75;2.60;;;12.40;74.50;;;;;;2370377;53;21649;-78
2021/12/31 03:15:50;;;;;;;7.82;3.15;;;12.40;75.20;;;;;;2594756;52;21007;-76
2021/12/31 03:18:19;;;;;;;7.15;3.00;;;12.30;74.50;;;;;;2461521;53;20933;-78
2021/12/31 03:20:56;;;;;;;6.05;2.87;;;12.30;74.60;;;;;;2397381;52;21469;-76
2021/12/31 03:23:26;;;;;;;5.18;2.45;;;12.20;74.60;;;;;;2448249;52;20964;-76
2021/12/31 03:25:53;;;;;;;5.32;2.65;;;12.20;74.60;;;;;;2386470;52;21423;-75
2021/12/31 03:28:19;;;;;;;4.85;2.22;;;12.10;74.50;;;;;;2504058;52;21531;-76
2021/12/31 03:30:49;;;;;;;7.87;2.40;;;12.10;74.50;;;;;;2343800;53;20946;-78
2021/12/31 03:33:15;;;;;;;4.55;2.05;;;12.10;75.10;;;;;;2412629;53;20975;-75
2021/12/31 03:35:41;;;;;;;4.97;2.30;;;12.10;75.40;;;;;;2339164;54;20950;-76
2021/12/31 03:38:08;;;;;;;4.47;1.90;;;12.00;75.30;;;;;;2369863;53;20990;-77
2021/12/31 03:40:34;;;;;;;3.72;1.60;;;12.00;75.20;;;;;;2348887;53;20954;-76
2021/12/31 03:43:00;;;;;;;3.45;1.40;;;12.00;75.00;;;;;;2346893;52;20920;-75
2021/12/31 03:45:29;;;;;;;3.15;1.20;;;12.00;75.00;;;;;;2394645;53;20950;-76
2021/12/31 03:47:55;;;;;;;3.60;1.40;;;11.90;74.90;;;;;;2410040;52;20988;-77
2021/12/31 03:50:21;;;;;;;3.97;1.27;;;11.90;75.00;;;;;;2587266;52;21057;-76
2021/12/31 03:52:48;;;;;;;3.45;1.12;;;11.90;75.10;;;;;;2420490;52;20934;-76
2021/12/31 03:55:14;;;;;;;3.25;0.90;;;11.80;75.00;;;;;;2349795;53;20930;-77
2021/12/31 03:57:40;;;;;;;2.67;0.90;;;11.80;74.90;;;;;;2364015;53;20991;-76
2021/12/31 04:03:35;;;;;;;2.12;0.90;;;11.80;74.80;;;;;;2622054;52;21021;-75
2021/12/31 04:06:04;;;;;;;2.95;0.70;;;11.70;75.00;;;;;;2400799;52;20898;-76
2021/12/31 04:08:30;;;;;;;1.83;0.70;;;11.70;75.40;;;;;;2493350;52;21026;-76
2021/12/31 04:10:56;;;;;;;3.15;0.70;;;11.70;75.70;;;;;;2350078;53;20979;-76
2021/12/31 04:13:22;;;;;;;1.90;0.65;;;11.70;75.90;;;;;;2368757;53;20947;-77
2021/12/31 04:15:49;;;;;;;3.12;0.80;;;11.70;76.10;;;;;;2401457;53;20887;-76
2021/12/31 04:18:15;;;;;;;3.47;1.27;;;11.70;76.40;;;;;;2588437;52;20944;-76
2021/12/31 04:20:45;;;;;;;2.72;0.50;;;11.70;76.60;;;;;;2346150;53;20941;-76
2021/12/31 04:23:26;;;;;;;1.75;0.73;;;11.70;76.60;;;;;;2357214;53;21024;-77
2021/12/31 04:26:02;;;;;;;1.77;0.75;;;11.70;76.70;;;;;;2360325;54;20933;-76
2021/12/31 04:28:29;;;;;;;1.83;0.70;;;11.70;76.80;;;;;;2370407;53;21017;-77
2021/12/31 04:30:56;;;;;;;1.73;0.73;;;11.80;76.90;;;;;;2349549;53;21354;-77
2021/12/31 04:33:23;;;;;;;2.90;0.80;;;11.80;76.70;;;;;;2547840;53;21010;-76
2021/12/31 04:35:49;;;;;;;1.55;0.70;;;11.80;76.50;;;;;;2370469;53;20926;-76
2021/12/31 04:38:16;;;;;;;2.47;0.70;;;11.80;76.40;;;;;;2410877;52;21550;-76
2021/12/31 04:40:44;;;;;;;1.98;0.70;;;11.80;76.20;;;;;;2352010;53;20928;-76
2021/12/31 04:43:12;;;;;;;2.65;1.00;;;11.80;75.90;;;;;;2368467;53;20985;-75
2021/12/31 04:45:41;;;;;;;3.90;1.58;;;11.70;76.30;;;;;;2408930;52;21010;-75
2021/12/31 04:48:11;;;;;;;3.30;1.65;;;11.70;75.50;;;;;;2370820;53;21731;-76
2021/12/31 04:50:37;;;;;;;3.03;1.40;;;11.70;75.40;;;;;;2369333;53;20938;-77
2021/12/31 04:53:04;;;;;;;2.75;1.30;;;11.70;75.10;;;;;;2356542;53;20980;-77
2021/12/31 04:55:31;;;;;;;3.30;1.10;;;11.60;74.80;;;;;;2403337;53;20910;-77
2021/12/31 04:57:58;;;;;;;2.53;1.12;;;11.60;74.50;;;;;;2391637;52;20918;-77
2021/12/31 05:00:27;;;;;;;4.55;0.90;;;11.60;74.30;;;;;;2370549;53;21024;-75
2021/12/31 05:02:53;;;;;;;2.87;0.95;;;11.50;74.30;;;;;;2370124;53;21433;-77
2021/12/31 05:05:19;;;;;;;2.97;0.75;;;11.50;74.70;;;;;;2351640;53;21013;-75
2021/12/31 05:07:48;;;;;;;2.28;0.90;;;11.40;74.70;;;;;;2361164;53;21023;-77
2021/12/31 05:10:15;;;;;;;2.05;0.90;;;11.40;74.60;;;;;;2472726;53;20938;-76
2021/12/31 05:12:42;;;;;;;1.90;0.75;;;11.40;74.40;;;;;;2372694;53;21009;-78
2021/12/31 05:15:11;;;;;;;1.77;0.73;;;11.40;74.30;;;;;;2436736;52;20922;-76
2021/12/31 05:17:37;;;;;;;1.80;0.80;;;11.30;74.10;;;;;;2370668;53;21421;-76
2021/12/31 05:20:04;;;;;;;1.85;0.70;;;11.30;74.10;;;;;;2370357;53;20935;-77
2021/12/31 05:22:30;;;;;;;1.45;0.65;;;11.20;74.30;;;;;;2414235;52;21940;-75
2021/12/31 05:24:56;;;;;;;2.53;0.90;;;11.20;74.70;;;;;;2370622;53;21379;-75
2021/12/31 05:27:23;;;;;;;2.53;1.00;;;11.20;74.60;;;;;;2448261;52;21023;-77
2021/12/31 05:29:49;;;;;;;2.58;0.90;;;11.10;74.30;;;;;;2363666;53;21011;-76
2021/12/31 05:32:15;;;;;;;5.15;0.98;;;11.10;74.30;;;;;;2337318;54;20982;-75
2021/12/31 05:34:41;;;;;;;1.85;0.90;;;11.10;74.30;;;;;;2605546;52;20970;-76
2021/12/31 05:37:08;;;;;;;1.65;0.77;;;11.00;74.50;;;;;;2373678;53;20942;-76
2021/12/31 05:39:34;;;;;;;2.20;0.75;;;11.00;75.10;;;;;;2370633;53;21032;-76
2021/12/31 05:42:00;;;;;;;2.42;0.88;;;10.90;75.50;;;;;;2341797;53;20965;-77
2021/12/31 05:44:26;;;;;;;2.35;0.90;;;11.00;75.50;;;;;;2339141;53;21064;-76
2021/12/31 05:46:53;;;;;;;2.05;0.82;;;11.00;75.20;;;;;;2352996;53;21333;-77
2021/12/31 05:49:20;;;;;;;4.97;0.90;;;11.00;74.90;;;;;;2357387;53;21416;-75
2021/12/31 05:51:47;;;;;;;2.00;0.80;;;10.90;74.50;;;;;;2467657;53;21023;-76
2021/12/31 05:54:13;;;;;;;2.40;1.05;;;10.90;74.30;;;;;;2402435;52;20962;-78
2021/12/31 05:56:39;;;;;;;3.97;1.20;;;10.90;74.30;;;;;;2377906;52;20982;-76
2021/12/31 05:59:07;;;;;;;1.83;0.85;;;10.90;74.30;;;;;;2363821;53;21015;-76
2021/12/31 06:01:33;;;;;;;3.15;1.08;;;10.80;74.10;;;;;;2343768;54;20939;-77
2021/12/31 06:03:59;;;;;;;2.15;1.05;;;10.80;74.10;;;;;;2352558;53;21532;-77
2021/12/31 06:06:26;;;;;;;1.60;0.80;;;10.80;74.20;;;;;;2349166;54;20937;-76
2021/12/31 06:08:52;;;;;;;1.95;0.95;;;10.70;74.00;;;;;;2371030;53;21022;-77
2021/12/31 06:11:18;;;;;;;2.53;1.25;;;10.70;74.00;;;;;;2360886;53;20986;-76
2021/12/31 06:13:49;;;;;;;2.00;0.80;;;10.70;74.10;;;;;;2436459;53;21005;-77
2021/12/31 06:16:18;;;;;;;2.53;1.00;;;10.60;74.20;;;;;;2334854;53;20981;-76
2021/12/31 06:18:44;;;;;;;2.47;1.20;;;10.60;74.30;;;;;;2359645;53;21788;-75
2021/12/31 06:21:11;;;;;;;2.60;1.10;;;10.60;74.70;;;;;;2370666;53;21017;-75
2021/12/31 06:23:37;;;;;;;2.45;0.98;;;10.60;74.70;;;;;;2525971;53;21106;-77
2021/12/31 06:26:19;;;;;;;2.60;1.42;;;10.60;74.90;;;;;;2411185;52;20997;-76
2021/12/31 06:28:45;;;;;;;5.07;1.70;;;10.60;75.00;;;;;;2351044;54;20935;-77
2021/12/31 06:31:11;;;;;;;3.55;1.67;;;10.50;75.00;;;;;;2365685;54;20933;-76
2021/12/31 06:33:37;;;;;;;2.60;1.20;;;10.50;75.10;;;;;;2357777;53;20955;-76
2021/12/31 06:36:06;;;;;;;3.87;1.50;;;10.60;75.50;;;;;;2416720;53;21987;-77
2021/12/31 06:38:32;;;;;;;2.83;0.95;;;10.50;75.70;;;;;;2334030;54;20923;-75
2021/12/31 06:40:59;;;;;;;3.33;1.00;;;10.50;75.90;;;;;;2366666;53;21061;-77
2021/12/31 06:43:26;;;;;;;2.53;1.20;;;10.60;76.10;;;;;;2355498;53;20924;-77
2021/12/31 06:45:52;;;;;;;2.10;1.20;;;10.60;76.10;;;;;;2351163;53;20991;-77
2021/12/31 06:48:19;;;;;;;2.60;1.30;;;10.60;75.90;;;;;;2365401;53;20981;-77
2021/12/31 06:50:45;;;;;;;3.28;1.60;;;10.60;75.60;;;;;;2376178;52;20917;-75
2021/12/31 06:53:11;;;;;;;2.70;1.20;;;10.60;75.40;;;;;;2370739;53;20933;-77
2021/12/31 06:55:38;;;;;;;2.87;1.30;;;10.60;75.20;;;;;;2370620;53;21060;-76
2021/12/31 06:58:04;;;;;;;5.07;1.92;;;10.60;75.10;;;;;;2558460;52;20942;-75
2021/12/31 07:00:30;;;;;;;5.50;1.75;;;10.50;74.80;;;;;;2370576;53;20930;-76
2021/12/31 07:03:06;;;;;;;4.72;1.92;;;10.50;74.90;;;;;;2424236;52;20938;-75
2021/12/31 07:05:33;;;;;;;3.53;1.70;;;10.50;75.60;;;;;;2433559;52;21434;-76
2021/12/31 07:08:00;;;;;;;3.08;1.42;;;10.50;75.80;;;;;;2344564;54;20927;-77
2021/12/31 07:10:28;;;;;;;3.70;1.37;;;10.50;75.80;;;;;;2372198;53;20969;-75
2021/12/31 07:13:00;;;;;;;3.20;1.40;;;10.50;75.50;;;;;;2368111;53;21674;-75
2021/12/31 07:15:27;;;;;;;3.00;1.12;;;10.50;75.00;;;;;;2354912;53;21758;-75
2021/12/31 07:17:53;;;;;;;2.70;1.40;;;10.50;74.80;;;;;;2368987;53;20960;-76
2021/12/31 07:20:20;;;;;;;2.83;1.23;;;10.50;74.80;;;;;;2430222;54;21539;-76
2021/12/31 07:22:46;;;;;;;2.47;1.00;;;10.50;74.90;;;;;;2369777;53;21083;-75
2021/12/31 07:25:12;;;;;;;2.45;1.05;;;10.40;74.70;;;;;;2352160;54;20957;-77
2021/12/31 07:27:40;;;;;;;3.00;1.23;;;10.40;74.60;;;;;;2370261;53;20953;-76
2021/12/31 07:30:08;;;;;;;3.30;1.20;;;10.40;74.60;;;;;;2370827;53;21304;-76
2021/12/31 07:32:37;;;;;;;2.60;1.20;;;10.40;74.60;;;;;;2372023;53;21381;-77
2021/12/31 07:35:04;;;;;;;3.75;1.40;;;10.40;74.60;;;;;;2373733;53;21010;-76
2021/12/31 07:37:31;;;;;;;3.17;1.40;;;10.40;74.70;;;;;;2350808;53;21027;-76
2021/12/31 07:40:03;;;;;;;2.47;1.20;;;10.30;74.70;;;;;;2460009;52;21411;-76
2021/12/31 07:42:29;;;;;;;2.95;1.30;;;10.30;74.80;;;;;;2370375;53;20922;-76
2021/12/31 07:44:55;;;;;;;3.50;1.50;;;10.30;74.80;;;;;;2454263;52;20986;-75
2021/12/31 07:47:21;;;;;;;5.32;2.42;;;10.30;74.90;;;;;;2352839;54;21047;-75
2021/12/31 07:53:28;;;;;;;4.85;2.65;;;10.30;74.70;;;;;;2424341;52;21304;-75
2021/12/31 07:55:55;;;;;;;6.10;2.80;;;10.30;74.70;;;;;;2369549;53;20946;-76
2021/12/31 07:58:21;;;;;;;5.12;2.75;;;10.30;74.70;;;;;;2370457;53;20997;-76
2021/12/31 08:00:47;;;;;;;5.97;3.22;;;10.20;74.60;;;;;;2370173;53;20922;-75
2021/12/31 08:03:16;;;;;;;6.57;3.50;;;10.20;74.70;;;;;;2351373;53;20972;-77
2021/12/31 08:05:42;;;;;;;7.60;3.28;;;10.20;74.70;;;;;;2369136;52;20984;-76
2021/12/31 08:08:08;;;;;;;7.93;4.05;;;10.20;74.70;;;;;;2338287;53;21012;-76
2021/12/31 08:10:35;;;;;;;11.65;4.43;;;10.20;74.80;;;;;;2338990;54;20981;-76
2021/12/31 08:13:18;;;;;;;6.47;4.03;;;10.20;74.90;;;;;;2357212;53;20917;-76
2021/12/31 08:15:45;;;;;;;8.85;4.32;;;10.20;75.10;;;;;;2356756;53;21060;-75
2021/12/31 08:18:11;;;;;;;6.03;3.58;;;10.20;75.00;;;;;;2414542;53;21004;-76
2021/12/31 08:20:37;;;;;;;5.45;3.10;;;10.20;75.10;;;;;;2335983;53;20996;-76
2021/12/31 08:23:07;;;;;;;4.85;2.72;;;10.20;75.20;;;;;;2426116;52;21064;-76
2021/12/31 08:25:35;;;;;;;5.53;3.20;;;10.20;75.40;;;;;;2339352;53;21004;-76
2021/12/31 08:28:01;;;;;;;9.88;5.18;;;10.20;75.50;;;;;;2337429;54;20902;-75
2021/12/31 08:30:27;;;;;;;9.00;5.15;;;10.20;75.60;;;;;;2351685;54;20987;-76
2021/12/31 08:32:54;;;;;;;6.97;4.20;;;10.20;75.70;;;;;;2589752;52;20930;-77
2021/12/31 08:35:20;;;;;;;6.78;4.00;;;10.20;75.80;;;;;;2347292;53;20983;-75
2021/12/31 08:37:47;;;;;;;6.28;3.30;;;10.30;75.90;;;;;;2370776;53;21739;-76
2021/12/31 08:40:13;;;;;;;4.90;2.85;;;10.30;75.90;;;;;;2368658;53;21335;-75
2021/12/31 08:42:40;;;;;;;5.35;2.87;;;10.30;75.90;;;;;;2369699;53;20922;-76
2021/12/31 08:45:07;;;;;;;6.15;2.58;;;10.30;76.10;;;;;;2362865;53;21051;-76
2021/12/31 08:47:34;;;;;;;4.35;2.58;;;10.30;76.10;;;;;;2359432;53;20938;-75
2021/12/31 08:50:03;;;;;;;5.72;3.15;;;10.40;76.10;;;;;;2370340;53;20949;-76
2021/12/31 08:52:30;;;;;;;4.62;2.42;;;10.30;76.00;;;;;;2340469;53;20953;-77
2021/12/31 08:54:57;;;;;;;4.50;2.17;;;10.40;76.10;;;;;;2363978;53;21021;-76
2021/12/31 08:57:26;;;;;;;3.87;1.92;;;10.40;76.20;;;;;;2337910;53;20921;-76
2021/12/31 08:59:54;;;;;;;3.55;1.87;;;10.40;76.90;;;;;;2488607;52;21021;-76
2021/12/31 09:02:20;;;;;;;5.53;2.87;;;10.40;76.40;;;;;;2373125;53;20985;-76
2021/12/31 09:04:46;;;;;;;5.60;3.22;;;10.50;76.60;;;;;;2344113;54;20947;-75
2021/12/31 09:07:12;;;;;;;4.50;2.47;;;10.50;76.80;;;;;;2333381;53;21412;-76
2021/12/31 09:09:39;;;;;;;4.90;2.40;;;10.50;77.00;;;;;;2498657;52;21750;-76
2021/12/31 09:12:09;;;;;;;5.55;2.42;;;10.60;77.40;;;;;;2350074;53;20918;-77
2021/12/31 09:14:39;;;;;;;4.57;2.73;;;10.60;77.50;;;;;;2369828;53;21889;-78
2021/12/31 09:17:05;;;;;;;6.07;3.30;;;10.70;77.70;;;;;;2478780;52;21029;-77
2021/12/31 09:19:34;;;;;;;6.37;3.55;;;10.80;77.70;;;;;;2360338;52;20995;-75
2021/12/31 09:22:04;;;;;;;5.72;3.60;;;10.80;77.70;;;;;;2369043;53;21427;-77
2021/12/31 09:24:31;;;;;;;7.25;4.53;;;10.80;77.80;;;;;;2411395;52;21807;-76
2021/12/31 09:26:57;;;;;;;7.47;4.32;;;10.90;78.00;;;;;;2529075;52;21022;-77
2021/12/31 09:29:23;;;;;;;10.13;6.00;;;10.90;78.00;;;;;;2370608;53;20993;-77
2021/12/31 09:31:50;;;;;;;9.23;6.10;;;11.00;78.20;;;;;;2353030;53;21028;-77
2021/12/31 09:34:17;;;;;;;9.10;5.35;;;11.00;78.40;;;;;;2348476;53;20945;-76
2021/12/31 09:36:44;;;;;;;10.30;5.57;;;11.10;78.50;;;;;;2488071;52;20942;-77
2021/12/31 09:39:10;;;;;;;8.45;5.95;;;11.20;78.80;;;;;;2475492;52;21006;-77
2021/12/31 09:41:38;;;;;;;9.60;6.15;;;11.20;79.00;;;;;;2370156;53;20950;-76
2021/12/31 09:44:06;;;;;;;9.15;5.55;;;11.30;79.20;;;;;;2371066;53;20962;-79
2021/12/31 09:46:33;;;;;;;7.20;5.00;;;11.40;79.40;;;;;;2371336;53;21415;-77
2021/12/31 09:48:59;;;;;;;7.47;3.85;;;11.40;79.60;;;;;;2334269;54;20931;-76
2021/12/31 09:51:25;;;;;;;6.65;3.00;;;11.50;79.90;;;;;;2518196;52;21870;-77
2021/12/31 09:53:58;;;;;;;4.12;2.12;;;11.60;80.30;;;;;;2356742;53;21010;-76
2021/12/31 09:56:25;;;;;;;3.35;1.75;;;11.70;80.70;;;;;;2406668;52;20961;-78
2021/12/31 09:58:55;;;;;;;4.68;2.25;;;11.80;80.80;;;;;;2347172;53;20962;-78
2021/12/31 10:01:21;;;;;;;3.60;1.60;;;11.90;81.00;;;;;;2352965;53;20945;-77
2021/12/31 10:04:00;;;;;;;3.25;1.58;;;12.00;81.40;;;;;;2430801;52;20922;-77
2021/12/31 10:06:27;;;;;;;5.93;2.65;;;12.10;81.60;;;;;;2456775;52;20991;-75
2021/12/31 10:08:57;;;;;;;6.93;4.15;;;12.30;81.90;;;;;;2354414;53;20913;-76
2021/12/31 10:11:23;;;;;;;6.55;3.15;;;12.40;82.00;;;;;;2389046;52;20897;-77
2021/12/31 10:13:59;;;;;;;6.40;2.85;;;12.50;82.20;;;;;;2345273;54;20989;-77
2021/12/31 10:16:36;;;;;;;5.80;3.15;;;12.60;82.40;;;;;;2388097;52;20984;-79
2021/12/31 10:19:25;;;;;;;4.40;2.30;;;12.80;82.70;;;;;;2367513;53;20919;-76
2021/12/31 10:21:53;;;;;;;4.45;2.42;;;12.90;82.80;;;;;;2325774;54;20989;-76
2021/12/31 10:24:36;;;;;;;4.22;2.15;;;13.00;82.70;;;;;;2334138;53;20962;-78
2021/12/31 10:27:25;;;;;;;4.45;2.28;;;13.20;82.50;;;;;;2338507;54;20956;-76
2021/12/31 10:29:57;;;;;;;4.12;2.22;;;13.30;82.60;;;;;;2433469;53;21473;-78
2021/12/31 10:32:27;;;;;;;4.18;2.50;;;13.40;82.40;;;;;;2352625;53;21378;-76
2021/12/31 10:34:53;;;;;;;4.28;2.33;;;13.50;82.30;;;;;;2347735;55;20941;-76
2021/12/31 10:37:22;;;;;;;3.97;2.28;;;13.70;82.30;;;;;;2346060;54;21068;-76
2021/12/31 10:40:31;;;;;;;3.85;2.17;;;13.70;82.00;;;;;;2352386;53;20958;-77
2021/12/31 10:43:18;;;;;;;5.00;1.98;;;13.90;81.30;;;;;;2519330;52;20934;-76
2021/12/31 10:46:09;;;;;;;4.00;2.03;;;14.00;81.50;;;;;;2414394;53;20901;-75
2021/12/31 10:48:45;;;;;;;3.45;2.08;;;14.10;81.30;;;;;;2410503;53;20974;-77
2021/12/31 10:51:16;;;;;;;4.93;2.67;;;14.10;81.90;;;;;;2304116;54;3081208;-76
2021/12/31 10:53:50;;;;;;;4.50;2.58;;;14.30;84.30;;;;;;2351498;53;21029;-75
2021/12/31 10:56:17;;;;;;;6.35;3.90;;;14.50;87.30;;;;;;2388529;52;20951;-75
2021/12/31 10:58:46;;;;;;;5.25;3.35;;;14.90;89.90;;;;;;2370833;53;20938;-76
2021/12/31 11:01:15;;;;;;;4.75;2.90;;;15.30;90.80;;;;;;2350645;53;21606;-76
2021/12/31 11:03:42;;;;;;;4.35;2.53;;;15.80;91.40;;;;;;2338733;54;20919;-78
2021/12/31 11:06:12;;;;;;;4.93;2.62;;;16.20;91.60;;;;;;2451252;52;20946;-76
2021/12/31 11:08:44;;;;;;;4.72;2.50;;;16.70;91.60;;;;;;2426478;52;20998;-76
2021/12/31 11:11:10;;;;;;;4.32;2.90;;;17.10;91.30;;;;;;2422930;52;21015;-77
2021/12/31 11:13:37;;;;;;;3.87;2.50;;;17.60;91.30;;;;;;2368421;53;21067;-76
2021/12/31 11:16:04;;;;;;;4.22;2.33;;;18.00;90.50;;;;;;2382894;53;20941;-76
2021/12/31 11:18:30;;;;;;;3.85;2.37;;;18.40;90.00;;;;;;2359368;53;21002;-77
2021/12/31 11:21:00;;;;;;;3.45;2.08;;;18.70;88.30;;;;;;2388656;52;20975;-76
2021/12/31 11:23:28;;;;;;;3.35;1.80;;;19.00;87.60;;;;;;2383082;54;20994;-76
2021/12/31 11:26:07;;;;;;;3.40;1.75;;;19.20;85.10;;;;;;2511550;52;20954;-76
2021/12/31 11:28:37;;;;;;;3.35;1.80;;;19.40;83.10;;;;;;2396363;52;20962;-76
2021/12/31 11:31:23;;;;;;;4.32;1.92;;;19.60;83.50;;;;;;2351785;53;20968;-79
2021/12/31 11:34:31;;;;;;;3.55;1.62;;;19.80;80.80;;;;;;2354179;53;20951;-78
2021/12/31 11:36:58;;;;;;;3.10;1.23;;;19.90;79.70;;;;;;2395761;53;21006;-76
2021/12/31 11:39:32;;;;;;;3.40;1.60;;;20.00;80.70;;;;;;2502224;53;20937;-76
2021/12/31 11:42:00;;;;;;;3.30;1.45;;;20.00;79.40;;;;;;2339634;54;20969;-79
2021/12/31 11:44:27;;;;;;;3.67;1.62;;;20.00;78.20;;;;;;2370589;53;20974;-77
2021/12/31 11:47:18;;;;;;;3.55;2.03;;;19.90;77.60;;;;;;2370846;53;20980;-76
2021/12/31 11:49:45;;;;;;;4.47;2.33;;;19.90;75.80;;;;;;2419619;52;20946;-77
2021/12/31 11:52:14;;;;;;;4.70;2.10;;;19.80;76.90;;;;;;2371318;53;21041;-79
2021/12/31 11:54:42;;;;;;;3.92;2.35;;;19.70;77.10;;;;;;2399270;52;20986;-76
2021/12/31 11:57:18;;;;;;;4.53;2.10;;;19.70;77.00;;;;;;2349338;53;21368;-77
2021/12/31 11:59:47;;;;;;;3.72;2.03;;;19.60;75.20;;;;;;2381485;52;20950;-76
2021/12/31 12:02:18;;;;;;;5.53;3.22;;;19.50;74.70;;;;;;2331250;54;21704;-76
2021/12/31 12:05:45;;;;;;;5.43;3.30;;;19.30;73.60;;;;;;2397580;52;21463;-75
2021/12/31 12:08:24;;;;;;;6.60;2.80;;;19.10;72.80;;;;;;2457701;52;21045;-77
2021/12/31 12:10:54;;;;;;;4.68;2.58;;;19.00;74.10;;;;;;2483887;53;20952;-75
2021/12/31 12:13:25;;;;;;;5.45;2.90;;;18.90;75.50;;;;;;2363650;53;20967;-77
2021/12/31 12:15:52;;;;;;;6.10;2.92;;;18.80;75.90;;;;;;2340054;54;20939;-76
2021/12/31 12:18:50;;;;;;;3.78;2.45;;;18.80;76.90;;;;;;2370647;53;20942;-76
2021/12/31 12:21:37;;;;;;;3.97;2.45;;;18.80;75.80;;;;;;2371187;53;21807;-76
2021/12/31 12:24:06;;;;;;;4.03;2.20;;;18.80;76.60;;;;;;2351086;54;21553;-78
2021/12/31 12:26:33;;;;;;;4.18;2.75;;;18.90;78.80;;;;;;2350970;54;20957;-76
2021/12/31 12:28:59;;;;;;;4.50;2.58;;;19.00;78.90;;;;;;2371436;53;20981;-76
2021/12/31 12:31:28;;;;;;;5.55;2.80;;;19.00;78.00;;;;;;2371548;53;20981;-77
2021/12/31 12:34:03;;;;;;;4.82;2.80;;;19.10;78.20;;;;;;2490852;53;21703;-76
2021/12/31 12:36:29;;;;;;;3.80;2.50;;;19.30;77.60;;;;;;2340172;53;21450;-77
2021/12/31 12:39:04;;;;;;;4.12;2.60;;;19.30;78.40;;;;;;2369388;53;20982;-77
2021/12/31 12:41:30;;;;;;;4.03;2.35;;;19.40;77.60;;;;;;2371735;53;20910;-76
2021/12/31 12:43:58;;;;;;;3.55;2.05;;;19.50;77.70;;;;;;2338807;53;20917;-76
2021/12/31 12:46:27;;;;;;;5.20;1.95;;;19.40;77.30;;;;;;2363078;53;20942;-76
2021/12/31 12:48:57;;;;;;;5.37;2.97;;;19.50;77.80;;;;;;2354846;53;20959;-76
2021/12/31 12:51:31;;;;;;;4.85;2.78;;;19.60;78.10;;;;;;2352936;53;20919;-79
2021/12/31 12:54:02;;;;;;;4.37;2.40;;;19.60;77.10;;;;;;2416001;52;20943;-76
2021/12/31 12:56:30;;;;;;;3.47;2.20;;;19.70;76.70;;;;;;2446334;52;20969;-76
2021/12/31 12:59:00;;;;;;;4.00;2.50;;;19.70;77.10;;;;;;2370239;53;20946;-76
2021/12/31 13:01:39;;;;;;;3.20;1.98;;;19.70;76.80;;;;;;2363006;53;21345;-75
2021/12/31 13:04:10;;;;;;;5.20;2.22;;;19.80;76.00;;;;;;2358821;53;20949;-77
2021/12/31 13:06:36;;;;;;;4.10;2.00;;;19.80;77.00;;;;;;2370363;53;20930;-77